map of XIY home
Great Circle Mapper logo
XIY - Airport
Location
City:  Xi'an, Shaanxi, China
Near (Alt.):Xian
Name:Xianyang International Airport
ICAO:ZLXY
IATA:XIY

Details
Type:Airport (Aerodrome, Airfield)
Use:Public/Civil, International (customs port of entry)
Latitude:34°27'N (34.445)
Longitude:108°45'E (108.750)
Elevation:1572 ft (479 m)
Variation:3.52°W (WMM2015 magnetic declination)
-0.04° annual change
Runways:2
Longest:12467 × 197 ft (3800 × 60 m), paved

Time
Time Zone:UTC+8
Local Time:

Weather
METAR:ZLXY 300200Z 23002MPS 160V280 CAVOK 26/11 Q1008 NOSIG

Related Locations
Nearby:
Farthest:SCAF: 12443 mi / 20026 km
Alhué [San Alfonso Airport], RM, CL

Find:

   beyond  
but within

Other Information
Maps:
NOTAMs:
Links:
Sources:

  
flag of China   

Airport Diagram

Airport diagram for XIY

Airport diagram PDF

Sectional Chart

Flight Planning
at skyvector.com

Satellite Image

Google Maps Satellite view

 

Copyright © 2004-2016 Karl L. Swartz. All rights reserved.
The Great Circle Mapper name and logo are trademarks of the Great Circle Mapper.
All other trademarks mentioned herein belong to their respective owners.
Please see credits for attibutions and further copyright information.

  Follow gcmap on Facebook Follow gcmap on Twitter Follow gcmap on Google+ GCmap on LinkedIn

hCard Microformat

Geo Microformat